Time;durP1;ratioP1;P1;durP2;ratioP2;P2;SDS_P1;SDS_P2;PMS_P1;PMS_P2;Temp;Humidity;BMP_temperature;BMP_pressure;BME280_temperature;BME280_humidity;BME280_pressure;Samples;Min_cycle;Max_cycle;Signal;HPM_P1;HPM_P2
2022/04/20 00:02:12;;;;;;;19.67;9.70;;;8.20;80.40;;;;;;4936846;28;20058;-72
2022/04/20 00:04:40;;;;;;;22.27;11.18;;;8.20;80.50;;;;;;4954018;29;20043;-72
2022/04/20 00:07:09;;;;;;;23.95;11.27;;;8.10;80.70;;;;;;4936832;29;20047;-71
2022/04/20 00:09:37;;;;;;;23.02;11.35;;;8.10;80.90;;;;;;4953651;29;20042;-71
2022/04/20 00:12:05;;;;;;;25.95;11.88;;;8.00;81.00;;;;;;4930680;29;20048;-71
2022/04/20 00:14:33;;;;;;;29.98;11.85;;;8.00;81.20;;;;;;4933406;29;20055;-72
2022/04/20 00:17:01;;;;;;;26.38;12.57;;;7.90;81.30;;;;;;4916884;29;20494;-71
2022/04/20 00:19:28;;;;;;;24.17;12.95;;;7.80;81.50;;;;;;4933679;29;20043;-72
2022/04/20 00:21:56;;;;;;;25.08;13.05;;;7.80;81.70;;;;;;4934423;29;20052;-71
2022/04/20 00:24:23;;;;;;;18.13;11.30;;;7.80;81.90;;;;;;4917214;29;20379;-71
2022/04/20 00:26:51;;;;;;;18.58;11.13;;;7.80;82.10;;;;;;4917768;29;20044;-72
2022/04/20 00:29:18;;;;;;;22.40;12.48;;;7.80;82.10;;;;;;4919249;29;20051;-72
2022/04/20 00:31:46;;;;;;;24.30;13.82;;;7.70;82.20;;;;;;4920846;29;20537;-72
2022/04/20 00:34:14;;;;;;;30.10;15.30;;;7.70;82.30;;;;;;4936867;29;20504;-72
2022/04/20 00:36:41;;;;;;;33.70;15.38;;;7.70;82.40;;;;;;4937848;29;20060;-70
2022/04/20 00:39:09;;;;;;;40.25;15.30;;;7.70;82.60;;;;;;4938176;29;20055;-72
2022/04/20 00:41:37;;;;;;;32.28;15.10;;;7.60;82.60;;;;;;4937199;29;20062;-71
2022/04/20 00:44:05;;;;;;;36.97;15.10;;;7.60;82.80;;;;;;4937608;29;20067;-71
2022/04/20 00:46:33;;;;;;;32.88;15.05;;;7.60;83.00;;;;;;4937674;29;20498;-71
2022/04/20 00:49:02;;;;;;;29.23;14.43;;;7.60;83.00;;;;;;4937643;29;20047;-71
2022/04/20 00:51:31;;;;;;;29.50;15.65;;;7.60;83.10;;;;;;4935560;29;20047;-71
2022/04/20 00:54:01;;;;;;;25.88;13.02;;;7.60;83.20;;;;;;4920379;29;20044;-71
2022/04/20 00:56:29;;;;;;;20.20;11.40;;;7.60;83.30;;;;;;4904734;29;20383;-71
2022/04/20 00:58:58;;;;;;;19.23;11.30;;;7.60;83.20;;;;;;4937411;29;20047;-71
2022/04/20 01:01:26;;;;;;;24.45;11.23;;;7.60;83.20;;;;;;4904858;29;20231;-71
2022/04/20 01:03:55;;;;;;;24.08;11.93;;;7.60;83.10;;;;;;4920412;29;20048;-70
2022/04/20 01:06:49;;;;;;;30.05;13.27;;;7.60;83.10;;;;;;4920339;29;20056;-72
2022/04/20 01:09:41;;;;;;;30.38;13.63;;;7.60;83.00;;;;;;4904632;29;20052;-71
2022/04/20 01:12:46;;;;;;;38.55;14.43;;;7.60;83.00;;;;;;4878290;29;20499;-71
2022/04/20 01:15:21;;;;;;;27.98;12.18;;;7.50;83.00;;;;;;4878932;29;20056;-70
2022/04/20 01:18:16;;;;;;;26.25;12.00;;;7.50;83.00;;;;;;4878251;29;20064;-71
2022/04/20 01:20:53;;;;;;;16.48;8.80;;;7.50;83.10;;;;;;4878109;29;20057;-71
2022/04/20 01:23:43;;;;;;;16.23;8.30;;;7.50;83.00;;;;;;4841101;29;20073;-71
2022/04/20 01:26:17;;;;;;;;;;;7.50;82.90;;;;;;4841674;29;20501;-71
2022/04/20 01:28:56;;;;;;;18.00;8.55;;;7.60;82.80;;;;;;4841225;29;19931;-71
2022/04/20 01:31:47;;;;;;;17.25;7.78;;;7.60;82.50;;;;;;4841026;29;20396;-71
2022/04/20 01:34:19;;;;;;;13.93;7.25;;;7.60;82.40;;;;;;4841095;29;20061;-71
2022/04/20 01:36:47;;;;;;;13.73;6.00;;;7.60;82.30;;;;;;4840929;29;20054;-71
2022/04/20 01:39:15;;;;;;;10.05;5.63;;;7.70;82.10;;;;;;4825290;29;20239;-71
2022/04/20 01:41:44;;;;;;;11.10;5.70;;;7.70;81.80;;;;;;4825561;29;20066;-71
2022/04/20 01:44:12;;;;;;;9.38;5.28;;;7.70;81.50;;;;;;4840441;29;20061;-72
2022/04/20 01:46:47;;;;;;;13.07;5.40;;;7.80;81.40;;;;;;4866232;29;20060;-71
2022/04/20 01:49:23;;;;;;;10.38;4.80;;;7.80;81.20;;;;;;4882075;29;20067;-71
2022/04/20 01:52:13;;;;;;;9.05;4.45;;;7.80;81.10;;;;;;4895359;29;20415;-71
2022/04/20 01:54:55;;;;;;;10.27;5.05;;;7.80;80.90;;;;;;4880670;29;20052;-71
2022/04/20 01:57:55;;;;;;;9.93;5.10;;;7.80;80.70;;;;;;4896191;29;20052;-71
2022/04/20 02:00:36;;;;;;;8.90;4.85;;;7.80;80.50;;;;;;4895424;29;20071;-72
2022/04/20 02:03:39;;;;;;;9.85;5.10;;;7.80;80.30;;;;;;4907981;29;20055;-71
2022/04/20 02:06:14;;;;;;;9.63;4.28;;;7.80;80.10;;;;;;4919109;29;20421;-71
2022/04/20 02:08:59;;;;;;;8.77;4.47;;;7.80;79.90;;;;;;4919310;29;20046;-71
2022/04/20 02:11:38;;;;;;;11.77;4.78;;;7.80;79.70;;;;;;4917122;29;20382;-71
2022/04/20 02:14:17;;;;;;;10.32;3.85;;;7.80;79.50;;;;;;4903207;29;20059;-72
2022/04/20 02:16:50;;;;;;;14.93;3.70;;;7.80;79.30;;;;;;4903493;29;20395;-71
2022/04/20 02:19:31;;;;;;;10.18;3.30;;;7.80;79.10;;;;;;4918858;29;20059;-71
2022/04/20 02:22:13;;;;;;;7.47;3.63;;;7.80;79.00;;;;;;4918703;29;20502;-71
2022/04/20 02:24:41;;;;;;;10.45;4.00;;;7.70;78.80;;;;;;4918790;29;20050;-71
2022/04/20 02:27:09;;;;;;;9.65;4.15;;;7.70;78.70;;;;;;4918754;29;20517;-72
2022/04/20 02:29:38;;;;;;;12.60;4.47;;;7.60;78.60;;;;;;4918721;29;20075;-71
2022/04/20 02:32:09;;;;;;;11.63;4.30;;;7.50;78.60;;;;;;4918423;29;20052;-72
2022/04/20 02:34:38;;;;;;;10.32;4.82;;;7.40;78.70;;;;;;4918459;29;20490;-71
2022/04/20 02:37:05;;;;;;;10.95;5.13;;;7.30;78.90;;;;;;4935700;29;20047;-71
2022/04/20 02:39:35;;;;;;;8.73;6.15;;;7.20;79.00;;;;;;4935479;29;20071;-71
2022/04/20 02:42:05;;;;;;;13.23;6.60;;;7.20;79.20;;;;;;4918562;29;20040;-72
2022/04/20 02:44:33;;;;;;;16.23;7.68;;;7.10;79.50;;;;;;4918473;29;20514;-71
2022/04/20 02:47:01;;;;;;;15.32;8.02;;;7.00;79.80;;;;;;4918212;29;20413;-71
2022/04/20 02:49:29;;;;;;;12.25;8.52;;;7.00;80.10;;;;;;4918373;29;20047;-71
2022/04/20 02:51:56;;;;;;;18.17;8.85;;;6.90;80.30;;;;;;4934605;29;20058;-71
2022/04/20 02:54:27;;;;;;;13.10;8.95;;;6.80;80.70;;;;;;4918297;29;20058;-71
2022/04/20 02:56:55;;;;;;;15.73;8.88;;;6.80;81.00;;;;;;4902385;29;20413;-71
2022/04/20 02:59:23;;;;;;;13.70;8.80;;;6.70;81.20;;;;;;4934180;29;20047;-72
2022/04/20 03:01:51;;;;;;;16.48;9.38;;;6.60;81.40;;;;;;4918893;29;20095;-71
2022/04/20 03:04:20;;;;;;;19.95;9.45;;;6.60;81.60;;;;;;4918376;29;20048;-72
2022/04/20 03:06:48;;;;;;;19.08;9.27;;;6.50;81.80;;;;;;4918319;29;20055;-72
2022/04/20 03:09:29;;;;;;;17.50;9.40;;;6.50;82.10;;;;;;4918259;29;20419;-70
2022/04/20 03:11:57;;;;;;;15.50;9.88;;;6.40;82.30;;;;;;4918258;29;20044;-70
2022/04/20 03:14:25;;;;;;;16.38;10.02;;;6.30;82.40;;;;;;4918006;29;20048;-70
2022/04/20 03:16:57;;;;;;;17.13;9.75;;;6.30;82.60;;;;;;4918286;29;20040;-70
2022/04/20 03:19:25;;;;;;;17.35;10.13;;;6.20;82.80;;;;;;4918277;29;20056;-72
2022/04/20 03:21:52;;;;;;;18.25;9.35;;;6.20;82.80;;;;;;4918076;29;20312;-71
2022/04/20 03:24:24;;;;;;;13.85;8.88;;;6.20;82.90;;;;;;4918218;29;20048;-71
2022/04/20 03:27:18;;;;;;;14.27;9.27;;;6.10;82.90;;;;;;4931274;29;20059;-71
2022/04/20 03:29:52;;;;;;;10.88;7.93;;;6.00;82.90;;;;;;4919027;29;20044;-71
2022/04/20 03:32:22;;;;;;;16.05;8.90;;;6.00;82.90;;;;;;4933478;29;20062;-70
2022/04/20 03:34:49;;;;;;;15.13;9.00;;;5.90;82.90;;;;;;4926717;29;20047;-72
2022/04/20 03:37:17;;;;;;;13.38;8.07;;;5.80;82.90;;;;;;4936547;29;20140;-71
2022/04/20 03:39:45;;;;;;;18.85;8.98;;;5.80;83.00;;;;;;4936769;29;20055;-71
2022/04/20 03:42:14;;;;;;;16.23;7.57;;;5.70;83.10;;;;;;4920930;29;20070;-71
2022/04/20 03:44:42;;;;;;;16.45;7.55;;;5.70;83.20;;;;;;4931874;29;20052;-71
2022/04/20 03:47:10;;;;;;;13.60;7.60;;;5.60;83.20;;;;;;4917635;29;20058;-71
2022/04/20 03:49:38;;;;;;;8.80;4.95;;;5.60;83.30;;;;;;4934898;29;20044;-71
2022/04/20 03:52:07;;;;;;;11.77;4.90;;;5.50;83.40;;;;;;4917237;29;20066;-71
2022/04/20 03:54:37;;;;;;;9.40;4.55;;;5.50;83.50;;;;;;4932103;29;20051;-71
2022/04/20 03:57:10;;;;;;;8.82;4.20;;;5.50;83.50;;;;;;4936982;29;20500;-71
2022/04/20 03:59:45;;;;;;;6.38;3.78;;;5.50;83.40;;;;;;4936804;28;20058;-71
2022/04/20 04:02:17;;;;;;;11.30;4.47;;;5.60;83.20;;;;;;4921205;28;20054;-71
2022/04/20 04:05:07;;;;;;;8.48;3.63;;;5.60;82.90;;;;;;4956900;28;20051;-71
2022/04/20 04:07:54;;;;;;;7.95;4.35;;;5.60;82.90;;;;;;4940358;28;20058;-72
2022/04/20 04:10:29;;;;;;;5.60;3.75;;;5.50;82.80;;;;;;4925619;29;20066;-71
2022/04/20 04:12:57;;;;;;;6.20;3.33;;;5.50;82.70;;;;;;4940196;29;20047;-73
2022/04/20 04:15:25;;;;;;;3.92;3.20;;;5.40;82.70;;;;;;4940131;29;20051;-72
2022/04/20 04:17:58;;;;;;;7.97;3.50;;;5.40;82.80;;;;;;4940122;29;20054;-71
2022/04/20 04:20:31;;;;;;;18.98;6.05;;;5.40;82.60;;;;;;4940151;28;20494;-71
2022/04/20 04:22:58;;;;;;;11.93;6.20;;;5.40;82.60;;;;;;4957268;29;20054;-71
2022/04/20 04:25:46;;;;;;;11.95;6.80;;;5.40;82.70;;;;;;4936748;29;20051;-71
2022/04/20 04:28:33;;;;;;;9.10;6.53;;;5.50;82.50;;;;;;4939950;28;20047;-71
2022/04/20 04:31:01;;;;;;;16.73;6.50;;;5.50;82.40;;;;;;4939826;29;20504;-71
2022/04/20 04:33:31;;;;;;;14.75;6.85;;;5.50;82.40;;;;;;4939904;29;20043;-71
2022/04/20 04:35:59;;;;;;;13.45;7.13;;;5.50;82.40;;;;;;4939974;29;20508;-71
2022/04/20 04:38:28;;;;;;;10.88;7.13;;;5.40;82.40;;;;;;4939734;29;20046;-71
2022/04/20 04:40:56;;;;;;;11.00;6.88;;;5.40;82.40;;;;;;4938722;29;20051;-71
2022/04/20 04:43:28;;;;;;;12.43;7.35;;;5.30;82.50;;;;;;4939856;29;20055;-71
2022/04/20 04:49:02;;;;;;;12.85;7.30;;;5.20;82.70;;;;;;4957750;28;20054;-71
2022/04/20 04:51:30;;;;;;;12.25;7.50;;;5.10;82.80;;;;;;4923866;29;20520;-71
2022/04/20 04:53:58;;;;;;;15.32;8.18;;;5.00;82.80;;;;;;4923656;29;20047;-71
2022/04/20 04:56:31;;;;;;;15.23;8.73;;;4.90;83.00;;;;;;4924656;29;20051;-71
2022/04/20 04:59:00;;;;;;;16.58;8.20;;;4.80;83.20;;;;;;4923909;29;20047;-71
2022/04/20 05:01:30;;;;;;;22.38;8.65;;;4.80;83.30;;;;;;4939370;29;20405;-70
2022/04/20 05:04:05;;;;;;;16.58;8.82;;;4.70;83.50;;;;;;4939404;29;20386;-70
2022/04/20 05:06:36;;;;;;;19.08;9.00;;;4.50;83.70;;;;;;4939439;29;20062;-71
2022/04/20 05:09:16;;;;;;;18.65;7.32;;;4.40;83.80;;;;;;4939485;29;20050;-70
2022/04/20 05:11:46;;;;;;;19.50;7.30;;;4.40;84.00;;;;;;4939124;29;20054;-71
2022/04/20 05:14:13;;;;;;;25.55;8.63;;;4.30;84.20;;;;;;4922740;29;20064;-70
2022/04/20 05:16:46;;;;;;;19.63;6.97;;;4.30;84.40;;;;;;4939351;29;20519;-70
2022/04/20 05:19:16;;;;;;;32.67;9.85;;;4.30;84.60;;;;;;4923179;29;20047;-71
2022/04/20 05:21:45;;;;;;;22.27;8.90;;;4.30;84.60;;;;;;4922884;29;20055;-71
2022/04/20 05:24:14;;;;;;;26.55;8.02;;;4.30;84.80;;;;;;4938115;29;20051;-70
2022/04/20 05:26:41;;;;;;;20.50;8.10;;;4.30;84.90;;;;;;4939099;29;20047;-70
2022/04/20 05:29:09;;;;;;;22.38;7.50;;;4.30;85.00;;;;;;4938606;28;20059;-71
2022/04/20 05:31:56;;;;;;;23.20;8.50;;;4.30;85.10;;;;;;4938925;29;20047;-73
2022/04/20 05:34:30;;;;;;;22.05;7.85;;;4.20;85.20;;;;;;4923598;29;20051;-72
2022/04/20 05:42:42;;;;;;;28.30;9.13;;;4.30;85.50;;;;;;4862142;29;20064;-72
2022/04/20 05:45:10;;;;;;;27.25;8.27;;;4.30;85.50;;;;;;4877751;29;20516;-71
2022/04/20 05:47:41;;;;;;;18.73;8.50;;;4.30;85.60;;;;;;4877241;29;20072;-71
2022/04/20 05:50:09;;;;;;;28.95;8.80;;;4.30;85.60;;;;;;4877727;29;20531;-71
2022/04/20 05:52:37;;;;;;;21.98;8.95;;;4.30;85.60;;;;;;4862183;29;20380;-72
2022/04/20 05:55:06;;;;;;;24.02;8.98;;;4.30;85.70;;;;;;4846800;29;20107;-71
2022/04/20 05:57:37;;;;;;;22.35;9.32;;;4.30;85.70;;;;;;4877586;29;20415;-71
2022/04/20 06:00:06;;;;;;;23.85;8.95;;;4.30;85.80;;;;;;4877558;29;20065;-71
2022/04/20 06:02:43;;;;;;;16.92;7.75;;;4.30;85.90;;;;;;4876829;29;20236;-71
2022/04/20 06:05:16;;;;;;;14.18;7.88;;;4.30;86.00;;;;;;4877489;29;20403;-72
2022/04/20 06:08:04;;;;;;;13.65;7.43;;;4.30;86.00;;;;;;4877486;29;20059;-71
2022/04/20 06:10:40;;;;;;;18.60;7.88;;;4.30;86.10;;;;;;4861686;29;20093;-71
2022/04/20 06:13:14;;;;;;;15.05;8.10;;;4.40;86.00;;;;;;4877321;29;20061;-71
2022/04/20 06:15:53;;;;;;;20.27;8.43;;;4.40;86.10;;;;;;4861745;29;20057;-71
2022/04/20 06:18:37;;;;;;;18.65;7.95;;;4.50;86.10;;;;;;4879300;29;20056;-71
2022/04/20 06:21:25;;;;;;;18.42;8.27;;;4.60;86.00;;;;;;4921875;29;20055;-71
2022/04/20 06:24:11;;;;;;;14.73;8.10;;;4.70;86.00;;;;;;4955196;29;20050;-71
2022/04/20 06:26:46;;;;;;;16.05;7.80;;;4.80;85.90;;;;;;4936388;29;20051;-71
2022/04/20 06:29:40;;;;;;;13.57;7.93;;;4.90;85.80;;;;;;4939547;29;20059;-71
2022/04/20 06:32:27;;;;;;;12.68;8.25;;;5.00;85.80;;;;;;4955095;29;20047;-71
2022/04/20 06:35:13;;;;;;;18.85;8.88;;;5.20;85.70;;;;;;4956089;28;20051;-71
2022/04/20 06:38:20;;;;;;;18.42;8.55;;;5.30;85.50;;;;;;4877006;29;20068;-71
2022/04/20 06:40:58;;;;;;;14.43;8.32;;;5.30;85.40;;;;;;4861147;29;20064;-71
2022/04/20 06:43:50;;;;;;;17.42;8.65;;;5.50;85.30;;;;;;4861270;29;20166;-71
2022/04/20 06:46:35;;;;;;;15.73;9.43;;;5.60;85.30;;;;;;4876842;29;20057;-71
2022/04/20 06:49:03;;;;;;;21.27;9.63;;;5.70;85.20;;;;;;4861242;29;20060;-71
2022/04/20 07:00:25;;;;;;;16.75;10.68;;;6.30;84.90;;;;;;4861298;29;20191;-72
2022/04/20 07:03:16;;;;;;;19.27;10.65;;;6.60;84.70;;;;;;4871675;29;20065;-72
2022/04/20 07:05:53;;;;;;;15.30;9.40;;;6.80;84.40;;;;;;4876517;29;20091;-72
2022/04/20 07:08:34;;;;;;;18.83;9.98;;;7.00;84.20;;;;;;4893643;29;20066;-71
2022/04/20 07:11:08;;;;;;;17.98;9.85;;;7.30;83.90;;;;;;4936993;28;20043;-71
2022/04/20 07:13:38;;;;;;;20.98;10.20;;;7.40;83.50;;;;;;4936632;29;20528;-71
2022/04/20 07:16:06;;;;;;;20.52;10.30;;;7.60;83.20;;;;;;4937088;29;20066;-71
2022/04/20 07:18:37;;;;;;;18.98;9.60;;;7.80;82.80;;;;;;4936926;29;20050;-71
2022/04/20 07:21:29;;;;;;;15.35;9.20;;;8.00;82.40;;;;;;4953063;28;20051;-71
2022/04/20 07:24:14;;;;;;;17.92;9.25;;;8.20;82.00;;;;;;4953628;29;20063;-71
2022/04/20 07:27:00;;;;;;;19.75;9.77;;;8.30;81.50;;;;;;4954290;28;20050;-72
2022/04/20 07:30:04;;;;;;;16.13;7.30;;;8.50;81.20;;;;;;4857325;29;20389;-72
2022/04/20 07:32:48;;;;;;;17.20;9.13;;;8.70;80.70;;;;;;4857794;29;20072;-72
2022/04/20 07:35:33;;;;;;;16.10;9.23;;;8.80;80.40;;;;;;4826924;29;20058;-70
2022/04/20 07:38:16;;;;;;;16.88;9.25;;;8.90;79.90;;;;;;4843903;29;20065;-71
2022/04/20 07:41:07;;;;;;;22.17;9.55;;;9.00;79.30;;;;;;4861536;29;20061;-71
2022/04/20 07:43:46;;;;;;;18.98;10.05;;;9.20;78.90;;;;;;4846084;29;20053;-71
2022/04/20 07:46:28;;;;;;;14.95;9.23;;;9.30;78.30;;;;;;4830678;29;20212;-71
2022/04/20 07:52:19;;;;;;;15.30;8.95;;;9.60;77.50;;;;;;4861183;29;20068;-71
2022/04/20 07:55:33;;;;;;;19.70;9.05;;;9.70;77.00;;;;;;4854019;29;20062;-71
2022/04/20 07:58:07;;;;;;;15.38;9.10;;;9.90;76.50;;;;;;4845980;29;20061;-72
2022/04/20 08:00:43;;;;;;;15.48;8.80;;;10.00;76.00;;;;;;4830259;29;20056;-73
2022/04/20 08:03:31;;;;;;;17.25;8.45;;;10.10;75.60;;;;;;4882681;28;20059;-72
2022/04/20 08:06:00;;;;;;;13.55;7.85;;;10.20;74.80;;;;;;4940771;29;20043;-72
2022/04/20 08:08:32;;;;;;;15.07;7.78;;;10.30;74.30;;;;;;4925202;29;20051;-71
2022/04/20 08:11:01;;;;;;;18.95;8.65;;;10.40;73.90;;;;;;4924945;29;20051;-71
2022/04/20 08:16:30;;;;;;;11.55;6.85;;;10.60;73.10;;;;;;4936989;29;20052;-73
2022/04/20 08:19:16;;;;;;;12.27;6.80;;;10.70;72.50;;;;;;4952380;29;20047;-71
2022/04/20 08:22:00;;;;;;;11.68;7.32;;;10.80;71.80;;;;;;4937952;28;20051;-71
2022/04/20 08:24:29;;;;;;;16.83;7.15;;;11.00;71.40;;;;;;4957314;29;20047;-71
2022/04/20 08:26:56;;;;;;;12.82;6.88;;;11.00;71.00;;;;;;4940012;29;20055;-71
2022/04/20 08:29:24;;;;;;;10.10;6.47;;;11.30;70.50;;;;;;4940270;29;20374;-71
2022/04/20 08:31:52;;;;;;;12.85;7.53;;;11.40;70.00;;;;;;4924369;29;20062;-71
2022/04/20 08:34:19;;;;;;;11.27;6.93;;;11.50;69.30;;;;;;4957095;29;20409;-72
2022/04/20 08:36:47;;;;;;;13.93;7.30;;;11.70;68.70;;;;;;4939594;28;20527;-71
2022/04/20 08:39:14;;;;;;;10.73;6.90;;;11.70;68.10;;;;;;4924263;29;20043;-72
2022/04/20 08:41:51;;;;;;;12.52;7.40;;;11.80;67.80;;;;;;4939790;29;20513;-72
2022/04/20 08:44:26;;;;;;;13.40;7.20;;;11.90;67.10;;;;;;4957054;29;20047;-72
2022/04/20 08:46:59;;;;;;;13.77;7.38;;;12.00;66.60;;;;;;4939991;29;20048;-72
2022/04/20 08:49:27;;;;;;;12.40;6.72;;;12.20;66.20;;;;;;4938323;29;20062;-72
2022/04/20 08:54:41;;;;;;;10.82;6.78;;;12.40;64.90;;;;;;4956793;28;20047;-72
2022/04/20 08:57:15;;;;;;;11.30;6.85;;;12.50;64.10;;;;;;4956729;29;20047;-71
2022/04/20 08:59:44;;;;;;;10.88;6.65;;;12.60;63.50;;;;;;4956630;28;20050;-71
2022/04/20 09:02:14;;;;;;;10.55;6.90;;;12.60;63.00;;;;;;4939447;29;20058;-72
2022/04/20 09:04:42;;;;;;;9.70;6.60;;;12.60;62.90;;;;;;4939436;29;20051;-71
2022/04/20 09:07:12;;;;;;;9.73;6.65;;;12.70;62.60;;;;;;4939281;29;20047;-73
2022/04/20 09:09:40;;;;;;;11.52;6.15;;;12.80;62.40;;;;;;4956263;29;20493;-72
2022/04/20 09:12:11;;;;;;;10.30;6.97;;;12.80;62.20;;;;;;4955969;28;20074;-71
2022/04/20 09:14:40;;;;;;;9.95;6.57;;;12.90;61.70;;;;;;4956865;29;20043;-71
2022/04/20 09:17:17;;;;;;;11.88;6.90;;;12.90;61.60;;;;;;4956749;29;20405;-72
2022/04/20 09:19:51;;;;;;;11.77;7.10;;;13.00;61.20;;;;;;4956381;28;20050;-72
2022/04/20 09:22:24;;;;;;;12.18;6.70;;;13.00;61.10;;;;;;4956225;29;20051;-71
2022/04/20 09:25:07;;;;;;;13.23;6.38;;;13.10;60.50;;;;;;4956227;29;20050;-72
2022/04/20 09:27:40;;;;;;;11.13;5.93;;;13.30;60.20;;;;;;4956386;28;20054;-73
2022/04/20 09:30:13;;;;;;;11.15;6.10;;;13.40;60.10;;;;;;4923316;29;20120;-72
2022/04/20 09:32:44;;;;;;;8.40;5.80;;;13.60;59.50;;;;;;4956195;28;20513;-73
2022/04/20 09:35:16;;;;;;;9.73;6.32;;;13.80;58.40;;;;;;4938719;29;20039;-72
2022/04/20 09:38:01;;;;;;;9.15;5.95;;;13.80;57.70;;;;;;4956398;28;20054;-72
2022/04/20 09:40:49;;;;;;;8.93;6.18;;;13.90;57.20;;;;;;4938648;29;20051;-72
2022/04/20 09:43:19;;;;;;;8.43;6.45;;;14.00;56.50;;;;;;4938683;28;20054;-72
2022/04/20 09:46:04;;;;;;;9.98;6.15;;;14.00;56.40;;;;;;4922926;29;20497;-72
2022/04/20 09:48:50;;;;;;;9.13;6.13;;;14.20;55.60;;;;;;4956093;29;20047;-72
2022/04/20 09:51:21;;;;;;;14.60;6.22;;;14.20;55.20;;;;;;4955657;28;20489;-72
2022/04/20 09:53:49;;;;;;;15.27;6.72;;;14.20;55.20;;;;;;4955809;28;20055;-72
2022/04/20 09:56:24;;;;;;;12.57;5.88;;;14.30;55.10;;;;;;4938453;29;20047;-71
2022/04/20 09:59:03;;;;;;;10.18;6.28;;;14.30;55.20;;;;;;4955038;28;20378;-72
2022/04/20 10:01:36;;;;;;;10.00;6.45;;;14.60;54.80;;;;;;4922677;29;20493;-72
2022/04/20 10:04:06;;;;;;;13.77;6.23;;;14.70;54.20;;;;;;4955464;28;20520;-72
2022/04/20 10:06:35;;;;;;;11.82;6.38;;;14.90;53.90;;;;;;4922447;29;20770;-71
2022/04/20 10:09:03;;;;;;;12.00;6.93;;;15.00;52.80;;;;;;4938702;29;20047;-71
2022/04/20 10:11:32;;;;;;;12.88;6.40;;;15.10;52.50;;;;;;4938267;29;20540;-72
2022/04/20 10:16:56;;;;;;;11.23;6.38;;;15.00;51.40;;;;;;4955150;28;20051;-72
2022/04/20 10:19:28;;;;;;;17.88;6.95;;;15.00;51.60;;;;;;4955225;28;20051;-71
2022/04/20 10:21:57;;;;;;;14.90;6.90;;;15.10;51.40;;;;;;4937940;29;20055;-72
2022/04/20 10:24:41;;;;;;;9.00;6.32;;;15.30;51.40;;;;;;4955128;28;20051;-71
2022/04/20 10:27:16;;;;;;;9.93;6.40;;;15.50;50.60;;;;;;4955163;28;20051;-72
2022/04/20 10:29:55;;;;;;;9.95;6.95;;;15.70;50.10;;;;;;4938087;29;20043;-72
2022/04/20 10:32:25;;;;;;;23.33;7.18;;;16.00;49.60;;;;;;4955340;29;20058;-72
2022/04/20 10:35:04;;;;;;;15.13;7.10;;;16.10;47.90;;;;;;4923191;29;20054;-71
2022/04/20 10:38:10;;;;;;;16.35;5.35;;;16.20;47.90;;;;;;4937874;29;20047;-72
2022/04/20 10:40:59;;;;;;;;;;;16.30;46.50;;;;;;4937974;29;20051;-72
2022/04/20 10:43:28;;;;;;;9.90;6.13;;;16.30;45.80;;;;;;4922001;29;20311;-73
2022/04/20 10:46:03;;;;;;;8.82;5.47;;;16.30;46.30;;;;;;4955045;28;20066;-71
2022/04/20 10:48:52;;;;;;;10.57;5.97;;;16.30;46.80;;;;;;4954835;28;20055;-72
2022/04/20 10:51:22;;;;;;;11.02;5.60;;;16.40;46.70;;;;;;4954801;28;20046;-71
2022/04/20 10:53:53;;;;;;;9.70;5.70;;;16.50;47.00;;;;;;4936702;29;20062;-72
2022/04/20 10:56:22;;;;;;;8.75;5.57;;;16.80;46.40;;;;;;4922089;28;20047;-73
2022/04/20 10:59:04;;;;;;;10.32;5.57;;;16.90;46.50;;;;;;4954495;28;20485;-72
2022/04/20 11:01:52;;;;;;;10.25;5.78;;;17.10;45.60;;;;;;4954405;28;20047;-72
2022/04/20 11:04:43;;;;;;;8.60;5.68;;;17.30;44.80;;;;;;4937358;29;20047;-73
2022/04/20 11:07:18;;;;;;;8.88;4.97;;;17.40;43.90;;;;;;4953709;29;20067;-72
2022/04/20 11:10:02;;;;;;;7.55;5.00;;;17.40;43.60;;;;;;4954402;28;20058;-72
2022/04/20 11:18:38;;;;;;;12.73;5.68;;;17.50;41.70;;;;;;4954321;28;20047;-72
2022/04/20 11:21:26;;;;;;;11.77;5.60;;;17.30;41.50;;;;;;4936408;29;20058;-72
2022/04/20 11:24:11;;;;;;;8.38;5.72;;;17.30;42.50;;;;;;4954147;28;20058;-72
2022/04/20 11:26:41;;;;;;;14.73;6.50;;;17.40;42.50;;;;;;4954209;29;20069;-72
2022/04/20 11:29:17;;;;;;;13.13;6.10;;;17.60;42.70;;;;;;4954148;29;20043;-71
2022/04/20 11:31:48;;;;;;;8.40;6.35;;;17.80;42.30;;;;;;4936866;29;20163;-72
2022/04/20 11:34:18;;;;;;;8.77;6.00;;;17.90;42.30;;;;;;4937042;29;20409;-72
2022/04/20 11:36:48;;;;;;;10.15;5.60;;;18.00;41.50;;;;;;4921248;29;20051;-73
2022/04/20 11:39:17;;;;;;;10.40;6.00;;;18.00;40.90;;;;;;4937199;29;20066;-72
2022/04/20 11:41:50;;;;;;;9.80;6.32;;;18.00;41.00;;;;;;4936819;29;20366;-71
2022/04/20 11:44:22;;;;;;;13.98;6.72;;;17.90;41.70;;;;;;4936967;29;20051;-71
2022/04/20 11:46:51;;;;;;;12.45;5.97;;;17.80;41.80;;;;;;4920955;29;20078;-72
2022/04/20 11:49:20;;;;;;;10.68;6.30;;;17.80;42.40;;;;;;4920960;29;20051;-74
2022/04/20 11:52:06;;;;;;;9.38;5.85;;;17.80;42.50;;;;;;4936803;29;20501;-71
2022/04/20 11:54:35;;;;;;;10.10;6.72;;;17.80;41.90;;;;;;4937598;29;20043;-71
2022/04/20 11:57:07;;;;;;;9.75;6.50;;;17.90;41.50;;;;;;4920744;29;20055;-72
2022/04/20 11:59:46;;;;;;;12.40;6.00;;;17.90;41.80;;;;;;4936789;29;20043;-72
2022/04/20 12:02:15;;;;;;;10.75;6.90;;;18.00;41.40;;;;;;4953938;29;20048;-72
2022/04/20 12:04:46;;;;;;;11.88;6.72;;;18.10;41.80;;;;;;4953852;28;20043;-72
2022/04/20 12:07:16;;;;;;;9.60;5.95;;;18.30;41.80;;;;;;4936696;28;20051;-72
2022/04/20 12:09:46;;;;;;;9.43;6.13;;;18.60;41.50;;;;;;4953807;28;20054;-72
2022/04/20 12:12:16;;;;;;;8.90;6.43;;;18.90;40.40;;;;;;4953824;29;20051;-72
2022/04/20 12:14:46;;;;;;;8.13;5.57;;;19.20;39.90;;;;;;4953659;29;20050;-72
2022/04/20 12:17:20;;;;;;;12.20;6.10;;;19.40;39.30;;;;;;4936501;29;20055;-71
2022/04/20 12:19:53;;;;;;;5.93;4.85;;;19.60;38.60;;;;;;4936455;29;20047;-73
2022/04/20 12:22:21;;;;;;;13.80;5.88;;;19.80;38.50;;;;;;4919721;29;20106;-72
2022/04/20 12:25:09;;;;;;;10.45;5.78;;;19.80;37.50;;;;;;4955943;28;20059;-72
2022/04/20 12:27:51;;;;;;;8.20;5.63;;;19.80;37.30;;;;;;4957135;29;20059;-72
2022/04/20 12:30:45;;;;;;;8.65;5.90;;;19.70;37.40;;;;;;4956986;29;20078;-72
2022/04/20 12:33:23;;;;;;;12.13;6.30;;;19.90;38.10;;;;;;4956134;29;20488;-72
2022/04/20 12:36:00;;;;;;;9.82;6.50;;;20.20;37.60;;;;;;4939427;29;20043;-72
2022/04/20 12:38:48;;;;;;;9.95;6.03;;;20.50;37.90;;;;;;4939224;29;20051;-72
2022/04/20 12:41:47;;;;;;;10.65;5.75;;;20.80;37.30;;;;;;4956230;28;20059;-72
2022/04/20 12:44:36;;;;;;;8.45;6.20;;;21.00;36.60;;;;;;4951623;29;20066;-72
2022/04/20 12:47:14;;;;;;;10.15;6.22;;;21.10;36.00;;;;;;4936572;29;20095;-72
2022/04/20 12:49:45;;;;;;;11.60;5.65;;;21.00;36.20;;;;;;4953776;29;20378;-71
2022/04/20 12:52:27;;;;;;;8.82;5.55;;;21.00;35.90;;;;;;4956032;29;20066;-71
2022/04/20 12:55:09;;;;;;;10.23;6.22;;;20.80;36.30;;;;;;4955965;29;20043;-71
2022/04/20 13:03:38;;;;;;;11.43;5.95;;;20.20;37.00;;;;;;4954446;29;20054;-72
2022/04/20 13:06:10;;;;;;;13.15;5.20;;;20.30;36.50;;;;;;4955568;29;20066;-72
2022/04/20 13:08:45;;;;;;;9.20;5.13;;;20.30;36.80;;;;;;4955595;29;20050;-72
2022/04/20 13:11:14;;;;;;;8.73;4.90;;;20.60;37.10;;;;;;4954474;29;20043;-72
2022/04/20 13:14:03;;;;;;;9.73;5.60;;;20.80;36.50;;;;;;4954289;29;20059;-72
2022/04/20 13:16:31;;;;;;;13.57;6.00;;;20.80;36.40;;;;;;4955174;29;20493;-72
2022/04/20 13:18:59;;;;;;;9.27;5.97;;;20.60;36.40;;;;;;4955535;29;20062;-72
2022/04/20 13:21:27;;;;;;;12.35;5.43;;;20.30;36.60;;;;;;4964850;28;20117;-72
2022/04/20 13:23:55;;;;;;;11.98;6.43;;;20.10;37.10;;;;;;4974834;28;20386;-71
2022/04/20 13:29:14;;;;;;;10.68;5.65;;;19.90;37.50;;;;;;4974771;28;20047;-72
2022/04/20 13:31:44;;;;;;;11.65;5.45;;;19.90;37.50;;;;;;4974364;28;20071;-71
2022/04/20 13:34:11;;;;;;;12.25;5.43;;;19.90;37.50;;;;;;4974648;28;20054;-72
2022/04/20 13:36:40;;;;;;;7.88;4.82;;;19.80;37.40;;;;;;4972799;28;20058;-72
2022/04/20 13:39:08;;;;;;;8.95;4.22;;;19.80;37.50;;;;;;4974409;28;20046;-72
2022/04/20 13:41:35;;;;;;;8.05;4.40;;;19.60;36.80;;;;;;4974651;28;20043;-72
2022/04/20 13:44:03;;;;;;;7.88;4.22;;;19.50;36.80;;;;;;4975116;28;20643;-72
2022/04/20 13:46:31;;;;;;;6.18;4.05;;;19.50;36.60;;;;;;4974551;28;20317;-71
2022/04/20 13:48:59;;;;;;;8.10;4.22;;;19.50;36.60;;;;;;4974096;28;20062;-71
2022/04/20 13:51:27;;;;;;;14.05;4.15;;;19.60;36.70;;;;;;4974126;28;20057;-72
2022/04/20 13:53:55;;;;;;;10.02;4.40;;;19.80;36.50;;;;;;4974294;28;20053;-72
2022/04/20 13:56:22;;;;;;;6.82;4.00;;;20.30;36.20;;;;;;4973376;28;20565;-72
2022/04/20 13:58:50;;;;;;;5.05;3.70;;;20.80;35.30;;;;;;4974041;28;20053;-72
2022/04/20 14:01:18;;;;;;;6.70;4.20;;;21.40;34.70;;;;;;4973815;28;20047;-72
2022/04/20 14:03:46;;;;;;;6.78;3.95;;;22.10;32.90;;;;;;4956157;28;20047;-73
2022/04/20 14:06:14;;;;;;;6.10;3.95;;;22.60;32.50;;;;;;4973952;28;20039;-73